createdAt,value
2018-07-22T00:03:46.753Z,21.6
2018-07-22T00:13:46.000Z,21.4
2018-07-22T00:23:45.232Z,21.4
2018-07-22T00:33:44.473Z,21.3
2018-07-22T00:43:43.715Z,21.2
2018-07-22T00:53:42.950Z,21.1
2018-07-22T01:03:42.189Z,21.1
2018-07-22T01:13:41.435Z,21
2018-07-22T01:23:40.667Z,20.8
2018-07-22T01:33:39.905Z,20.8
2018-07-22T01:43:39.143Z,20.7
2018-07-22T01:53:38.382Z,20.8
2018-07-22T02:03:37.620Z,20.6
2018-07-22T02:13:36.857Z,20.4
2018-07-22T02:23:36.095Z,20.4
2018-07-22T02:33:35.333Z,20.4
2018-07-22T02:43:34.574Z,20.3
2018-07-22T02:53:33.808Z,20.3
2018-07-22T03:03:33.048Z,20.2
2018-07-22T03:13:32.293Z,20.1
2018-07-22T03:23:31.519Z,20.2
2018-07-22T03:33:30.766Z,20.3
2018-07-22T03:43:30.052Z,20.4
2018-07-22T03:53:29.234Z,20.8
2018-07-22T04:03:28.469Z,21.3
2018-07-22T04:13:27.705Z,21.8
2018-07-22T04:23:27.046Z,22.4
2018-07-22T04:33:26.180Z,22.6
2018-07-22T04:43:25.417Z,23.2
2018-07-22T04:53:24.707Z,23.9
2018-07-22T05:03:23.890Z,24.6
2018-07-22T05:13:23.131Z,25.2
2018-07-22T05:23:22.362Z,25.9
2018-07-22T05:33:21.602Z,26.1
2018-07-22T05:43:20.839Z,26.6
2018-07-22T05:53:20.077Z,27.1
2018-07-22T06:03:19.322Z,27.8
2018-07-22T06:13:18.557Z,28.2
2018-07-22T06:23:17.820Z,28.4
2018-07-22T06:33:17.037Z,27.7
2018-07-22T06:43:16.273Z,27.6
2018-07-22T06:53:15.515Z,28.2
2018-07-22T07:03:14.754Z,29.4
2018-07-22T07:13:13.996Z,29.8
2018-07-22T07:23:13.237Z,29.5
2018-07-22T07:33:12.480Z,30.3
2018-07-22T07:43:11.724Z,31
2018-07-22T07:53:10.969Z,31.9
2018-07-22T08:03:10.206Z,32.4
2018-07-22T08:13:09.444Z,32.6
2018-07-22T08:23:08.688Z,32.5
2018-07-22T08:33:07.927Z,32.6
2018-07-22T08:43:07.172Z,32.6
2018-07-22T08:53:06.425Z,30.9
2018-07-22T09:03:05.659Z,31.8
2018-07-22T09:13:04.900Z,31.9
2018-07-22T09:23:04.148Z,32.3
2018-07-22T09:33:03.389Z,32.3
2018-07-22T09:43:02.631Z,31.9
2018-07-22T09:53:01.872Z,31.2
2018-07-22T10:03:01.118Z,30.8
2018-07-22T10:13:00.360Z,30.6
2018-07-22T10:22:59.605Z,30.7
2018-07-22T10:32:58.849Z,30.6
2018-07-22T10:42:58.098Z,30.5
2018-07-22T10:52:57.336Z,30
2018-07-22T11:02:56.578Z,30.2
2018-07-22T11:12:55.820Z,30.4
2018-07-22T11:22:55.064Z,30.6
2018-07-22T11:32:54.306Z,30.6
2018-07-22T11:42:53.549Z,30.7
2018-07-22T11:52:52.793Z,30.8
2018-07-22T12:02:52.038Z,30.3
2018-07-22T12:12:51.278Z,30.1
2018-07-22T12:22:50.521Z,30.3
2018-07-22T12:32:49.764Z,30.3
2018-07-22T12:42:49.008Z,30.2
2018-07-22T12:52:48.248Z,30.1
2018-07-22T13:02:47.494Z,29.8
2018-07-22T13:12:46.737Z,29.2
2018-07-22T13:22:46.033Z,28.4
2018-07-22T13:32:45.224Z,26.9
2018-07-22T13:42:44.464Z,26.5
2018-07-22T13:52:43.760Z,26.7
2018-07-22T14:02:42.954Z,26.6
2018-07-22T14:12:42.199Z,26.6
2018-07-22T14:22:41.443Z,26.6
2018-07-22T14:32:40.691Z,26.6
2018-07-22T14:42:39.932Z,26.8
2018-07-22T14:52:39.176Z,27
2018-07-22T15:02:38.424Z,27.3
2018-07-22T15:12:37.668Z,27.4
2018-07-22T15:22:36.915Z,27.6
2018-07-22T15:32:36.164Z,27.7
2018-07-22T15:42:35.454Z,27.7
2018-07-22T15:52:34.652Z,27.7
2018-07-22T16:02:33.900Z,27.7
2018-07-22T16:12:33.142Z,27.7
2018-07-22T16:22:32.386Z,27.7
2018-07-22T16:32:31.626Z,27.7
2018-07-22T16:42:30.877Z,27.6
2018-07-22T16:52:30.116Z,27.4
2018-07-22T17:02:29.367Z,27.2
2018-07-22T17:12:28.611Z,27
2018-07-22T17:22:27.855Z,26.8
2018-07-22T17:32:27.104Z,26.5
2018-07-22T17:42:26.351Z,26
2018-07-22T17:52:25.655Z,25.8
2018-07-22T18:02:24.853Z,25.7
2018-07-22T18:12:24.095Z,25.6
2018-07-22T18:22:23.342Z,25.4
2018-07-22T18:32:22.585Z,25.3
2018-07-22T18:42:21.848Z,25.1
2018-07-22T18:52:21.081Z,25.1
2018-07-22T19:02:20.325Z,25.1
2018-07-22T19:12:19.573Z,25
2018-07-22T19:22:18.818Z,24.9
2018-07-22T19:32:18.070Z,24.8
2018-07-22T19:42:17.317Z,24.6
2018-07-22T19:52:16.563Z,24.6
2018-07-22T20:02:15.813Z,24.6
2018-07-22T20:12:15.062Z,24.4
2018-07-22T20:22:14.311Z,24.3
2018-07-22T20:32:13.554Z,24.2
2018-07-22T20:42:12.800Z,24.2
2018-07-22T20:52:12.045Z,24.1
2018-07-22T21:02:11.289Z,23.9
2018-07-22T21:12:10.536Z,23.6
2018-07-22T21:22:09.789Z,23.6
2018-07-22T21:32:09.034Z,23.3
2018-07-22T21:42:08.279Z,23.2
2018-07-22T21:52:07.526Z,23.1
2018-07-22T22:02:06.767Z,22.9
2018-07-22T22:12:06.008Z,22.9
2018-07-22T22:22:05.254Z,22.8
2018-07-22T22:32:04.500Z,22.8
2018-07-22T22:42:03.743Z,22.8
2018-07-22T22:52:02.986Z,22.8
2018-07-22T23:02:02.231Z,22.7
2018-07-22T23:12:01.479Z,22.6
2018-07-22T23:22:00.729Z,22.6
2018-07-22T23:31:59.967Z,22.4
2018-07-22T23:41:59.209Z,22.3
2018-07-22T23:51:58.453Z,22.1
